createdAt,value
2018-12-04T00:00:11.396Z,993.58
2018-12-04T00:01:11.404Z,993.59
2018-12-04T00:02:11.379Z,993.62
2018-12-04T00:03:11.384Z,993.62
2018-12-04T00:04:11.374Z,993.67
2018-12-04T00:05:11.370Z,993.62
2018-12-04T00:06:11.334Z,993.65
2018-12-04T00:07:11.330Z,993.70
2018-12-04T00:08:11.321Z,993.70
2018-12-04T00:09:11.308Z,993.72
2018-12-04T00:10:11.297Z,993.74
2018-12-04T00:11:11.347Z,993.70
2018-12-04T00:12:11.263Z,993.73
2018-12-04T00:13:11.257Z,993.70
2018-12-04T00:14:11.244Z,993.72
2018-12-04T00:15:11.242Z,993.71
2018-12-04T00:16:11.239Z,993.73
2018-12-04T00:17:11.237Z,993.79
2018-12-04T00:18:11.220Z,993.78
2018-12-04T00:19:11.191Z,993.76
2018-12-04T00:20:11.179Z,993.73
2018-12-04T00:21:11.174Z,993.79
2018-12-04T00:22:11.181Z,993.81
2018-12-04T00:23:11.143Z,993.76
2018-12-04T00:24:11.134Z,993.77
2018-12-04T00:25:11.151Z,993.85
2018-12-04T00:26:11.111Z,993.76
2018-12-04T00:27:11.112Z,993.79
2018-12-04T00:28:11.095Z,993.80
2018-12-04T00:29:11.090Z,993.85
2018-12-04T00:30:11.069Z,993.78
2018-12-04T00:31:11.087Z,993.86
2018-12-04T00:32:11.051Z,993.90
2018-12-04T00:33:11.039Z,993.85
2018-12-04T00:34:11.028Z,993.88
2018-12-04T00:35:11.021Z,993.91
2018-12-04T00:36:11.015Z,993.91
2018-12-04T00:37:11.012Z,993.95
2018-12-04T00:38:10.998Z,993.94
2018-12-04T00:39:10.982Z,993.95
2018-12-04T00:40:10.971Z,993.95
2018-12-04T00:41:10.958Z,994.00
2018-12-04T00:42:10.944Z,993.99
2018-12-04T00:43:10.949Z,994.01
2018-12-04T00:44:10.914Z,994.05
2018-12-04T00:45:10.898Z,993.98
2018-12-04T00:46:10.896Z,994.05
2018-12-04T00:47:10.897Z,994.05
2018-12-04T00:48:10.883Z,994.04
2018-12-04T00:49:10.890Z,994.04
2018-12-04T00:50:10.855Z,994.03
2018-12-04T00:51:10.842Z,994.03
2018-12-04T00:52:10.828Z,994.06
2018-12-04T00:53:10.847Z,994.05
2018-12-04T00:54:10.842Z,994.07
2018-12-04T00:55:10.788Z,994.11
2018-12-04T00:56:10.786Z,994.12
2018-12-04T00:57:10.776Z,994.16
2018-12-04T00:58:10.764Z,994.16
2018-12-04T00:59:10.751Z,994.19
2018-12-04T01:00:10.784Z,994.19
2018-12-04T01:01:10.738Z,994.23
2018-12-04T01:02:10.721Z,994.22
2018-12-04T01:03:10.706Z,994.25
2018-12-04T01:04:10.700Z,994.29
2018-12-04T01:05:10.681Z,994.30
2018-12-04T01:06:10.698Z,994.26
2018-12-04T01:07:10.669Z,994.34
2018-12-04T01:08:10.663Z,994.35
2018-12-04T01:09:10.639Z,994.33
2018-12-04T01:10:10.644Z,994.35
2018-12-04T01:11:10.664Z,994.36
2018-12-04T01:12:10.623Z,994.39
2018-12-04T01:13:10.600Z,994.39
2018-12-04T01:14:10.596Z,994.36
2018-12-04T01:15:10.578Z,994.36
2018-12-04T01:16:10.558Z,994.38
2018-12-04T01:17:10.584Z,994.36
2018-12-04T01:18:10.543Z,994.35
2018-12-04T01:19:10.533Z,994.37
2018-12-04T01:20:10.530Z,994.34
2018-12-04T01:21:10.515Z,994.34
2018-12-04T01:22:10.507Z,994.33
2018-12-04T01:23:10.503Z,994.33
2018-12-04T01:24:10.469Z,994.36
2018-12-04T01:25:10.474Z,994.38
2018-12-04T01:26:10.468Z,994.38
2018-12-04T01:27:10.449Z,994.37
2018-12-04T01:28:10.458Z,994.33
2018-12-04T01:29:10.429Z,994.38
2018-12-04T01:30:10.408Z,994.38
2018-12-04T01:31:10.405Z,994.39
2018-12-04T01:32:10.398Z,994.40
2018-12-04T01:33:10.390Z,994.39
2018-12-04T01:34:10.396Z,994.45
2018-12-04T01:35:10.351Z,994.43
2018-12-04T01:36:10.340Z,994.45
2018-12-04T01:37:10.336Z,994.43
2018-12-04T01:38:10.321Z,994.52
2018-12-04T01:39:10.319Z,994.45
2018-12-04T01:40:10.322Z,994.43
2018-12-04T01:41:10.289Z,994.41
2018-12-04T01:42:10.285Z,994.45
2018-12-04T01:43:10.272Z,994.43
2018-12-04T01:44:10.267Z,994.39
2018-12-04T01:45:10.284Z,994.47
2018-12-04T01:46:10.243Z,994.45
2018-12-04T01:47:10.214Z,994.44
2018-12-04T01:48:10.209Z,994.44
2018-12-04T01:49:10.196Z,994.44
2018-12-04T01:50:10.185Z,994.44
2018-12-04T01:51:10.210Z,994.45
2018-12-04T01:52:10.187Z,994.40
2018-12-04T01:53:10.168Z,994.36
2018-12-04T01:54:10.170Z,994.41
2018-12-04T01:55:10.138Z,994.44
2018-12-04T01:56:10.133Z,994.45
2018-12-04T01:57:10.150Z,994.42
2018-12-04T01:58:10.111Z,994.41
2018-12-04T01:59:10.093Z,994.46
2018-12-04T02:00:10.087Z,994.46
2018-12-04T02:01:10.070Z,994.48
2018-12-04T02:02:10.055Z,994.41
2018-12-04T02:03:10.079Z,994.41
2018-12-04T02:04:10.047Z,994.43
2018-12-04T02:05:10.033Z,994.42
2018-12-04T02:06:10.050Z,994.49
2018-12-04T02:07:10.001Z,994.45
2018-12-04T02:08:09.992Z,994.47
2018-12-04T02:09:09.985Z,994.46
2018-12-04T02:10:09.976Z,994.48
2018-12-04T02:11:09.962Z,994.47
2018-12-04T02:12:09.976Z,994.50
2018-12-04T02:13:09.949Z,994.47
2018-12-04T02:14:09.927Z,994.55
2018-12-04T02:15:09.933Z,994.51
2018-12-04T02:16:09.917Z,994.49
2018-12-04T02:17:09.907Z,994.48
2018-12-04T02:18:09.903Z,994.53
2018-12-04T02:19:09.880Z,994.49
2018-12-04T02:20:09.857Z,994.51
2018-12-04T02:21:09.864Z,994.49
2018-12-04T02:22:09.836Z,994.52
2018-12-04T02:23:09.855Z,994.51
2018-12-04T02:24:09.825Z,994.53
2018-12-04T02:25:09.825Z,994.53
2018-12-04T02:26:09.813Z,994.51
2018-12-04T02:27:09.780Z,994.57
2018-12-04T02:28:09.774Z,994.56
2018-12-04T02:29:09.765Z,994.55
2018-12-04T02:30:09.862Z,994.62
2018-12-04T02:31:09.740Z,994.63
2018-12-04T02:32:09.736Z,994.62
2018-12-04T02:33:09.709Z,994.59
2018-12-04T02:34:09.699Z,994.61
2018-12-04T02:35:09.708Z,994.63
2018-12-04T02:36:09.744Z,994.62
2018-12-04T02:37:09.680Z,994.64
2018-12-04T02:38:09.682Z,994.63
2018-12-04T02:39:09.656Z,994.71
2018-12-04T02:40:09.642Z,994.67
2018-12-04T02:41:09.631Z,994.74
2018-12-04T02:42:09.641Z,994.80
2018-12-04T02:43:09.619Z,994.87
2018-12-04T02:44:09.606Z,994.91
2018-12-04T02:45:09.595Z,994.88
2018-12-04T02:46:09.580Z,994.89
2018-12-04T02:47:09.603Z,994.85
2018-12-04T02:48:09.555Z,994.92
2018-12-04T02:49:09.558Z,994.90
2018-12-04T02:50:09.542Z,994.95
2018-12-04T02:51:09.524Z,994.90
2018-12-04T02:52:09.565Z,994.92
2018-12-04T02:53:09.527Z,994.91
2018-12-04T02:54:09.493Z,994.93
2018-12-04T02:55:09.515Z,995.00
2018-12-04T02:56:09.476Z,995.00
2018-12-04T02:57:09.464Z,995.08
2018-12-04T02:58:09.449Z,995.01
2018-12-04T02:59:09.462Z,995.02
2018-12-04T03:00:09.428Z,995.08
2018-12-04T03:01:09.426Z,995.13
2018-12-04T03:02:09.410Z,995.09
2018-12-04T03:03:09.401Z,995.19
2018-12-04T03:04:09.394Z,995.14
2018-12-04T03:05:09.363Z,995.13
2018-12-04T03:06:09.352Z,995.22
2018-12-04T03:07:09.356Z,995.21
2018-12-04T03:08:09.361Z,995.28
2018-12-04T03:09:09.331Z,995.28
2018-12-04T03:10:09.344Z,995.37
2018-12-04T03:11:09.306Z,995.30
2018-12-04T03:12:09.292Z,995.39
2018-12-04T03:13:09.280Z,995.42
2018-12-04T03:14:09.266Z,995.54
2018-12-04T03:15:09.259Z,995.62
2018-12-04T03:16:09.283Z,995.63
2018-12-04T03:17:09.247Z,995.67
2018-12-04T03:18:09.225Z,995.76
2018-12-04T03:19:09.233Z,995.75
2018-12-04T03:20:09.210Z,995.78
2018-12-04T03:21:09.200Z,995.85
2018-12-04T03:22:09.207Z,995.78
2018-12-04T03:23:09.177Z,995.87
2018-12-04T03:24:09.165Z,995.89
2018-12-04T03:25:09.147Z,995.89
2018-12-04T03:26:09.144Z,995.92
2018-12-04T03:27:09.157Z,995.94
2018-12-04T03:28:09.128Z,995.99
2018-12-04T03:29:09.110Z,995.96
2018-12-04T03:30:09.113Z,996.03
2018-12-04T03:31:09.159Z,996.12
2018-12-04T03:32:09.061Z,996.26
2018-12-04T03:33:09.089Z,996.22
2018-12-04T03:34:09.061Z,996.20
2018-12-04T03:35:09.044Z,996.28
2018-12-04T03:36:09.021Z,996.30
2018-12-04T03:37:09.016Z,996.37
2018-12-04T03:38:08.996Z,996.37
2018-12-04T03:39:09.038Z,996.33
2018-12-04T03:40:09.006Z,996.41
2018-12-04T03:41:08.985Z,996.48
2018-12-04T03:42:08.969Z,996.51
2018-12-04T03:43:08.953Z,996.51
2018-12-04T03:44:08.960Z,996.61
2018-12-04T03:45:08.977Z,996.59
2018-12-04T03:46:08.921Z,996.60
2018-12-04T03:47:08.915Z,996.70
2018-12-04T03:48:08.914Z,996.69
2018-12-04T03:49:08.889Z,996.74
2018-12-04T03:50:08.871Z,996.74
2018-12-04T03:51:08.887Z,996.77
2018-12-04T03:52:08.859Z,996.80
2018-12-04T03:53:08.857Z,996.83
2018-12-04T03:54:08.840Z,996.87
2018-12-04T03:55:08.814Z,996.85
2018-12-04T03:56:08.822Z,996.84
2018-12-04T03:57:08.823Z,996.92
2018-12-04T03:58:08.785Z,996.96
2018-12-04T03:59:08.778Z,997.01
2018-12-04T04:00:08.773Z,997.04
2018-12-04T04:01:08.761Z,997.02
2018-12-04T04:02:08.777Z,997.11
2018-12-04T04:03:08.740Z,997.21
2018-12-04T04:04:08.727Z,997.16
2018-12-04T04:05:08.740Z,997.19
2018-12-04T04:06:08.701Z,997.17
2018-12-04T04:07:08.684Z,997.22
2018-12-04T04:08:08.687Z,997.21
2018-12-04T04:09:08.661Z,997.25
2018-12-04T04:10:08.653Z,997.30
2018-12-04T04:11:08.650Z,997.31
2018-12-04T04:12:08.671Z,997.32
2018-12-04T04:13:08.641Z,997.36
2018-12-04T04:14:08.621Z,997.31
2018-12-04T04:15:08.607Z,997.39
2018-12-04T04:16:08.584Z,997.41
2018-12-04T04:17:08.569Z,997.42
2018-12-04T04:18:08.586Z,997.46
2018-12-04T04:19:08.573Z,997.39
2018-12-04T04:20:08.549Z,997.48
2018-12-04T04:21:08.534Z,997.47
2018-12-04T04:22:08.516Z,997.56
2018-12-04T04:23:08.524Z,997.60
2018-12-04T04:24:08.540Z,997.57
2018-12-04T04:25:08.502Z,997.71
2018-12-04T04:26:08.489Z,997.67
2018-12-04T04:27:08.473Z,997.78
2018-12-04T04:28:08.454Z,997.76
2018-12-04T04:29:08.449Z,997.85
2018-12-04T04:30:08.461Z,997.84
2018-12-04T04:31:08.440Z,997.79
2018-12-04T04:32:08.419Z,997.82
2018-12-04T04:33:08.405Z,997.84
2018-12-04T04:34:08.389Z,997.86
2018-12-04T04:35:08.374Z,997.85
2018-12-04T04:36:08.377Z,997.90
2018-12-04T04:37:08.379Z,997.95
2018-12-04T04:38:08.360Z,997.97
2018-12-04T04:39:08.331Z,998.04
2018-12-04T04:40:08.324Z,998.00
2018-12-04T04:41:08.314Z,998.09
2018-12-04T04:42:08.302Z,998.05
2018-12-04T04:43:08.297Z,998.13
2018-12-04T04:44:08.358Z,998.16
2018-12-04T04:45:08.280Z,998.17
2018-12-04T04:46:08.293Z,998.25
2018-12-04T04:47:08.247Z,998.26
2018-12-04T04:48:08.245Z,998.26
2018-12-04T04:49:08.224Z,998.32
2018-12-04T04:50:08.210Z,998.33
2018-12-04T04:51:08.207Z,998.29
2018-12-04T04:52:08.225Z,998.30
2018-12-04T04:53:08.172Z,998.39
2018-12-04T04:54:08.169Z,998.41
2018-12-04T04:55:08.166Z,998.42
2018-12-04T04:56:08.154Z,998.49
2018-12-04T04:57:08.138Z,998.51
2018-12-04T04:58:08.142Z,998.54
2018-12-04T04:59:08.115Z,998.54
2018-12-04T05:00:08.095Z,998.56
2018-12-04T05:01:08.099Z,998.60
2018-12-04T05:02:08.100Z,998.62
2018-12-04T05:03:08.107Z,998.65
2018-12-04T05:04:08.050Z,998.64
2018-12-04T05:05:08.062Z,998.68
2018-12-04T05:06:08.027Z,998.75
2018-12-04T05:07:08.038Z,998.77
2018-12-04T05:08:08.023Z,998.72
2018-12-04T05:09:08.038Z,998.78
2018-12-04T05:10:07.989Z,998.83
2018-12-04T05:11:07.994Z,998.77
2018-12-04T05:12:07.977Z,998.83
2018-12-04T05:13:07.981Z,998.90
2018-12-04T05:14:07.951Z,998.92
2018-12-04T05:15:07.949Z,998.99
2018-12-04T05:16:07.947Z,998.94
2018-12-04T05:17:07.927Z,999.04
2018-12-04T05:18:07.909Z,999.04
2018-12-04T05:19:07.895Z,999.02
2018-12-04T05:20:07.888Z,999.20
2018-12-04T05:21:08.971Z,999.18
2018-12-04T05:22:07.876Z,999.23
2018-12-04T05:23:07.844Z,999.18
2018-12-04T05:24:07.841Z,999.26
2018-12-04T05:25:07.824Z,999.33
2018-12-04T05:26:07.996Z,999.38
2018-12-04T05:27:07.798Z,999.35
2018-12-04T05:28:07.803Z,999.43
2018-12-04T05:29:07.783Z,999.40
2018-12-04T05:30:07.779Z,999.49
2018-12-04T05:31:07.760Z,999.50
2018-12-04T05:32:07.765Z,999.53
2018-12-04T05:33:07.767Z,999.60
2018-12-04T05:34:07.754Z,999.63
2018-12-04T05:35:07.723Z,999.62
2018-12-04T05:36:07.695Z,999.65
2018-12-04T05:37:07.694Z,999.64
2018-12-04T05:38:07.682Z,999.66
2018-12-04T05:39:07.712Z,999.70
2018-12-04T05:40:07.675Z,999.73
2018-12-04T05:41:07.652Z,999.72
2018-12-04T05:42:07.638Z,999.70
2018-12-04T05:43:07.634Z,999.72
2018-12-04T05:44:07.621Z,999.73
2018-12-04T05:45:07.624Z,999.76
2018-12-04T05:46:07.596Z,999.82
2018-12-04T05:47:07.573Z,999.88
2018-12-04T05:48:07.565Z,999.91
2018-12-04T05:49:07.551Z,999.85
2018-12-04T05:50:07.566Z,999.93
2018-12-04T05:51:07.546Z,999.96
2018-12-04T05:52:07.533Z,999.99
2018-12-04T05:53:07.532Z,999.98
2018-12-04T05:54:07.504Z,1000.05
2018-12-04T05:55:07.506Z,1000.07
2018-12-04T05:56:07.516Z,1000.13
2018-12-04T05:57:07.491Z,1000.15
2018-12-04T05:58:07.473Z,1000.19
2018-12-04T05:59:07.482Z,1000.18
2018-12-04T06:00:07.437Z,1000.27
2018-12-04T06:01:07.428Z,1000.30
2018-12-04T06:02:07.453Z,1000.36
2018-12-04T06:03:07.407Z,1000.37
2018-12-04T06:04:07.403Z,1000.43
2018-12-04T06:05:07.388Z,1000.45
2018-12-04T06:06:07.372Z,1000.53
2018-12-04T06:07:07.351Z,1000.54
2018-12-04T06:08:07.370Z,1000.48
2018-12-04T06:09:07.346Z,1000.59
2018-12-04T06:10:07.356Z,1000.55
2018-12-04T06:11:07.321Z,1000.55
2018-12-04T06:12:07.316Z,1000.57
2018-12-04T06:13:07.324Z,1000.62
2018-12-04T06:14:07.281Z,1000.70
2018-12-04T06:15:07.282Z,1000.70
2018-12-04T06:16:07.265Z,1000.82
2018-12-04T06:17:07.253Z,1000.79
2018-12-04T06:18:07.242Z,1000.79
2018-12-04T06:19:07.246Z,1000.83
2018-12-04T06:20:07.214Z,1000.82
2018-12-04T06:21:07.206Z,1000.91
2018-12-04T06:22:07.189Z,1000.95
2018-12-04T06:23:07.182Z,1000.93
2018-12-04T06:24:07.194Z,1001.04
2018-12-04T06:25:07.178Z,1001.06
2018-12-04T06:26:07.152Z,1001.12
2018-12-04T06:27:07.146Z,1001.10
2018-12-04T06:28:07.121Z,1001.16
2018-12-04T06:29:07.145Z,1001.11
2018-12-04T06:30:07.108Z,1001.10
2018-12-04T06:31:07.100Z,1001.09
2018-12-04T06:32:07.086Z,1001.09
2018-12-04T06:33:07.062Z,1001.12
2018-12-04T06:34:07.080Z,1001.16
2018-12-04T06:35:07.057Z,1001.15
2018-12-04T06:36:07.048Z,1001.19
2018-12-04T06:37:07.032Z,1001.19
2018-12-04T06:38:07.026Z,1001.29
2018-12-04T06:39:07.032Z,1001.29
2018-12-04T06:40:06.988Z,1001.33
2018-12-04T06:41:06.979Z,1001.33
2018-12-04T06:42:07.008Z,1001.42
2018-12-04T06:43:06.965Z,1001.38
2018-12-04T06:44:06.955Z,1001.47
2018-12-04T06:45:06.985Z,1001.45
2018-12-04T06:46:06.925Z,1001.51
2018-12-04T06:47:06.922Z,1001.56
2018-12-04T06:48:06.919Z,1001.52
2018-12-04T06:49:06.906Z,1001.61
2018-12-04T06:50:06.908Z,1001.62
2018-12-04T06:51:06.878Z,1001.65
2018-12-04T06:52:06.880Z,1001.68
2018-12-04T06:53:06.854Z,1001.71
2018-12-04T06:54:06.861Z,1001.75
2018-12-04T06:55:06.841Z,1001.81
2018-12-04T06:56:06.827Z,1001.78
2018-12-04T06:57:06.852Z,1001.81
2018-12-04T06:58:06.801Z,1001.83
2018-12-04T06:59:06.798Z,1001.97
2018-12-04T07:00:06.772Z,1001.96
2018-12-04T07:01:06.826Z,1001.99
2018-12-04T07:02:06.762Z,1002.02
2018-12-04T07:03:06.760Z,1002.09
2018-12-04T07:04:06.725Z,1002.06
2018-12-04T07:05:06.729Z,1002.09
2018-12-04T07:06:06.803Z,1002.14
2018-12-04T07:07:06.710Z,1002.18
2018-12-04T07:08:06.688Z,1002.23
2018-12-04T07:09:06.681Z,1002.29
2018-12-04T07:10:06.666Z,1002.20
2018-12-04T07:11:06.663Z,1002.26
2018-12-04T07:12:06.667Z,1002.25
2018-12-04T07:13:06.628Z,1002.32
2018-12-04T07:14:06.611Z,1002.36
2018-12-04T07:15:06.632Z,1002.38
2018-12-04T07:16:06.604Z,1002.43
2018-12-04T07:17:06.617Z,1002.55
2018-12-04T07:18:06.583Z,1002.53
2018-12-04T07:19:06.568Z,1002.64
2018-12-04T07:20:06.585Z,1002.60
2018-12-04T07:21:06.547Z,1002.63
2018-12-04T07:22:06.550Z,1002.68
2018-12-04T07:23:06.544Z,1002.75
2018-12-04T07:24:06.518Z,1002.69
2018-12-04T07:25:06.490Z,1002.72
2018-12-04T07:26:06.484Z,1002.70
2018-12-04T07:27:06.479Z,1002.78
2018-12-04T07:28:06.490Z,1002.79
2018-12-04T07:29:06.485Z,1002.83
2018-12-04T07:30:06.474Z,1002.91
2018-12-04T07:31:06.430Z,1002.88
2018-12-04T07:32:06.419Z,1002.97
2018-12-04T07:33:06.414Z,1002.92
2018-12-04T07:34:06.432Z,1003.02
2018-12-04T07:35:06.388Z,1002.99
2018-12-04T07:36:06.368Z,1002.99
2018-12-04T07:37:06.368Z,1003.00
2018-12-04T07:38:06.353Z,1003.04
2018-12-04T07:39:06.362Z,1003.06
2018-12-04T07:40:06.370Z,1003.12
2018-12-04T07:41:06.338Z,1003.14
2018-12-04T07:42:06.340Z,1003.18
2018-12-04T07:43:06.295Z,1003.13
2018-12-04T07:44:06.278Z,1003.24
2018-12-04T07:45:06.293Z,1003.24
2018-12-04T07:46:06.291Z,1003.30
2018-12-04T07:47:06.257Z,1003.28
2018-12-04T07:48:06.250Z,1003.38
2018-12-04T07:49:06.226Z,1003.37
2018-12-04T07:50:06.231Z,1003.38
2018-12-04T07:51:06.220Z,1003.46
2018-12-04T07:52:06.238Z,1003.39
2018-12-04T07:53:06.295Z,1003.44
2018-12-04T07:54:06.183Z,1003.52
2018-12-04T07:55:06.160Z,1003.52
2018-12-04T07:56:06.164Z,1003.56
2018-12-04T07:57:06.152Z,1003.57
2018-12-04T07:58:06.160Z,1003.70
2018-12-04T07:59:06.148Z,1003.74
2018-12-04T08:00:06.154Z,1003.79
2018-12-04T08:01:06.101Z,1003.81
2018-12-04T08:02:06.121Z,1003.78
2018-12-04T08:03:06.079Z,1003.80
2018-12-04T08:04:06.122Z,1003.83
2018-12-04T08:05:06.067Z,1003.83
2018-12-04T08:06:06.056Z,1003.88
2018-12-04T08:07:06.035Z,1003.83
2018-12-04T08:08:06.019Z,1003.90
2018-12-04T08:09:06.022Z,1003.94
2018-12-04T08:10:06.155Z,1003.93
2018-12-04T08:11:06.064Z,1003.99
2018-12-04T08:12:05.981Z,1004.04
2018-12-04T08:13:05.975Z,1004.06
2018-12-04T08:14:05.956Z,1004.08
2018-12-04T08:15:05.945Z,1004.13
2018-12-04T08:16:05.951Z,1004.09
2018-12-04T08:17:05.926Z,1004.10
2018-12-04T08:18:05.908Z,1004.13
2018-12-04T08:19:05.962Z,1004.14
2018-12-04T08:20:05.891Z,1004.16
2018-12-04T08:21:06.067Z,1004.10
2018-12-04T08:22:05.865Z,1004.20
2018-12-04T08:23:05.895Z,1004.18
2018-12-04T08:24:05.930Z,1004.28
2018-12-04T08:25:05.862Z,1004.31
2018-12-04T08:26:05.852Z,1004.32
2018-12-04T08:27:05.982Z,1004.29
2018-12-04T08:28:05.828Z,1004.38
2018-12-04T08:29:05.793Z,1004.37
2018-12-04T08:30:05.812Z,1004.44
2018-12-04T08:31:05.817Z,1004.43
2018-12-04T08:32:05.793Z,1004.47
2018-12-04T08:33:05.809Z,1004.46
2018-12-04T08:34:06.039Z,1004.54
2018-12-04T08:35:06.171Z,1004.52
2018-12-04T08:36:05.716Z,1004.55
2018-12-04T08:37:05.737Z,1004.63
2018-12-04T08:38:05.770Z,1004.64
2018-12-04T08:39:05.766Z,1004.66
2018-12-04T08:40:05.687Z,1004.62
2018-12-04T08:41:05.664Z,1004.72
2018-12-04T08:42:05.679Z,1004.76
2018-12-04T08:43:05.666Z,1004.76
2018-12-04T08:44:05.733Z,1004.79
2018-12-04T08:45:05.696Z,1004.82
2018-12-04T08:46:05.676Z,1004.83
2018-12-04T08:47:05.795Z,1004.90
2018-12-04T08:48:05.626Z,1004.91
2018-12-04T08:49:05.607Z,1004.89
2018-12-04T08:50:05.604Z,1004.92
2018-12-04T08:51:05.574Z,1004.98
2018-12-04T08:52:05.551Z,1005.04
2018-12-04T08:53:05.562Z,1005.08
2018-12-04T08:54:05.547Z,1005.02
2018-12-04T08:55:05.511Z,1005.09
2018-12-04T08:56:05.505Z,1005.06
2018-12-04T08:57:05.521Z,1005.16
2018-12-04T08:58:05.546Z,1005.16
2018-12-04T08:59:05.452Z,1005.21
2018-12-04T09:00:05.450Z,1005.18
2018-12-04T09:01:05.426Z,1005.24
2018-12-04T09:02:05.414Z,1005.28
2018-12-04T09:03:05.449Z,1005.36
2018-12-04T09:04:05.592Z,1005.37
2018-12-04T09:05:05.415Z,1005.33
2018-12-04T09:06:05.395Z,1005.31
2018-12-04T09:07:06.500Z,1005.39
2018-12-04T09:08:09.351Z,1005.47
2018-12-04T09:09:05.589Z,1005.44
2018-12-04T09:10:05.349Z,1005.51
2018-12-04T09:11:05.324Z,1005.47
2018-12-04T09:12:05.317Z,1005.54
2018-12-04T09:13:05.303Z,1005.57
2018-12-04T09:14:05.316Z,1005.63
2018-12-04T09:15:05.284Z,1005.63
2018-12-04T09:16:05.283Z,1005.65
2018-12-04T09:17:05.265Z,1005.71
2018-12-04T09:18:05.294Z,1005.80
2018-12-04T09:19:05.289Z,1005.79
2018-12-04T09:20:05.285Z,1005.83
2018-12-04T09:21:05.220Z,1005.87
2018-12-04T09:22:05.221Z,1005.87
2018-12-04T09:23:05.205Z,1005.87
2018-12-04T09:24:05.244Z,1005.85
2018-12-04T09:25:05.260Z,1005.98
2018-12-04T09:26:05.191Z,1005.95
2018-12-04T09:27:05.697Z,1006.00
2018-12-04T09:28:05.187Z,1006.01
2018-12-04T09:29:05.163Z,1006.16
2018-12-04T09:30:05.142Z,1006.09
2018-12-04T09:31:05.124Z,1006.13
2018-12-04T09:32:05.115Z,1006.05
2018-12-04T09:33:05.079Z,1006.12
2018-12-04T09:34:05.071Z,1006.10
2018-12-04T09:35:05.063Z,1006.01
2018-12-04T09:36:05.067Z,1006.09
2018-12-04T09:37:05.050Z,1006.14
2018-12-04T09:38:05.056Z,1006.10
2018-12-04T09:39:05.038Z,1006.17
2018-12-04T09:40:05.021Z,1006.12
2018-12-04T09:41:05.011Z,1006.06
2018-12-04T09:42:04.997Z,1006.20
2018-12-04T09:43:04.970Z,1006.14
2018-12-04T09:44:04.956Z,1006.19
2018-12-04T09:45:04.978Z,1006.18
2018-12-04T09:46:04.941Z,1006.25
2018-12-04T09:47:04.938Z,1006.27
2018-12-04T09:48:04.917Z,1006.31
2018-12-04T09:49:04.912Z,1006.21
2018-12-04T09:50:04.897Z,1006.18
2018-12-04T09:51:04.902Z,1006.18
2018-12-04T09:52:04.894Z,1006.21
2018-12-04T09:53:04.876Z,1006.26
2018-12-04T09:54:04.851Z,1006.30
2018-12-04T09:55:04.845Z,1006.34
2018-12-04T09:56:04.846Z,1006.35
2018-12-04T09:57:04.852Z,1006.38
2018-12-04T09:58:04.811Z,1006.36
2018-12-04T09:59:04.842Z,1006.40
2018-12-04T10:00:04.805Z,1006.40
2018-12-04T10:01:04.784Z,1006.35
2018-12-04T10:02:04.799Z,1006.39
2018-12-04T10:03:04.764Z,1006.38
2018-12-04T10:04:04.735Z,1006.36
2018-12-04T10:05:04.733Z,1006.39
2018-12-04T10:06:04.722Z,1006.45
2018-12-04T10:07:04.740Z,1006.40
2018-12-04T10:08:04.709Z,1006.41
2018-12-04T10:09:04.695Z,1006.40
2018-12-04T10:10:04.678Z,1006.39
2018-12-04T10:11:04.655Z,1006.40
2018-12-04T10:12:04.673Z,1006.41
2018-12-04T10:13:04.650Z,1006.37
2018-12-04T10:14:04.641Z,1006.44
2018-12-04T10:15:04.609Z,1006.42
2018-12-04T10:16:04.604Z,1006.49
2018-12-04T10:17:04.594Z,1006.53
2018-12-04T10:18:04.607Z,1006.52
2018-12-04T10:19:04.586Z,1006.49
2018-12-04T10:20:04.578Z,1006.55
2018-12-04T10:21:04.568Z,1006.50
2018-12-04T10:22:04.556Z,1006.57
2018-12-04T10:23:04.551Z,1006.58
2018-12-04T10:24:04.527Z,1006.62
2018-12-04T10:25:04.510Z,1006.60
2018-12-04T10:26:04.495Z,1006.63
2018-12-04T10:27:04.494Z,1006.62
2018-12-04T10:28:05.461Z,1006.73
2018-12-04T10:29:04.481Z,1006.61
2018-12-04T10:30:04.451Z,1006.77
2018-12-04T10:31:04.456Z,1006.74
2018-12-04T10:32:04.433Z,1006.73
2018-12-04T10:33:04.456Z,1006.72
2018-12-04T10:34:04.417Z,1006.78
2018-12-04T10:35:04.390Z,1006.76
2018-12-04T10:36:04.384Z,1006.76
2018-12-04T10:37:04.371Z,1006.79
2018-12-04T10:38:04.355Z,1006.71
2018-12-04T10:39:04.378Z,1006.81
2018-12-04T10:40:04.344Z,1006.91
2018-12-04T10:41:04.336Z,1006.94
2018-12-04T10:42:04.322Z,1006.87
2018-12-04T10:43:04.307Z,1006.94
2018-12-04T10:44:04.330Z,1006.97
2018-12-04T10:45:04.308Z,1006.93
2018-12-04T10:46:04.280Z,1006.95
2018-12-04T10:47:04.261Z,1006.96
2018-12-04T10:48:04.255Z,1006.98
2018-12-04T10:49:04.235Z,1006.98
2018-12-04T10:50:04.257Z,1007.02
2018-12-04T10:51:04.238Z,1007.03
2018-12-04T10:52:04.218Z,1007.01
2018-12-04T10:53:04.211Z,1007.01
2018-12-04T10:54:04.202Z,1007.02
2018-12-04T10:55:04.526Z,1007.07
2018-12-04T10:56:04.160Z,1007.03
2018-12-04T10:57:09.676Z,1007.09
2018-12-04T10:58:05.150Z,1007.04
2018-12-04T10:59:04.137Z,1007.02
2018-12-04T11:00:04.165Z,1007.06
2018-12-04T11:01:04.169Z,1007.07
2018-12-04T11:02:04.096Z,1007.07
2018-12-04T11:03:04.086Z,1007.05
2018-12-04T11:04:04.082Z,1007.11
2018-12-04T11:05:04.072Z,1007.11
2018-12-04T11:06:04.082Z,1007.20
2018-12-04T11:07:04.043Z,1007.20
2018-12-04T11:08:04.024Z,1007.23
2018-12-04T11:09:04.023Z,1007.25
2018-12-04T11:10:04.016Z,1007.16
2018-12-04T11:11:04.037Z,1007.25
2018-12-04T11:12:03.996Z,1007.29
2018-12-04T11:13:03.991Z,1007.34
2018-12-04T11:14:03.971Z,1007.26
2018-12-04T11:15:03.953Z,1007.31
2018-12-04T11:16:03.934Z,1007.30
2018-12-04T11:17:03.969Z,1007.37
2018-12-04T11:18:03.930Z,1007.35
2018-12-04T11:19:03.910Z,1007.38
2018-12-04T11:20:04.204Z,1007.39
2018-12-04T11:21:03.949Z,1007.36
2018-12-04T11:22:03.986Z,1007.36
2018-12-04T11:23:03.888Z,1007.37
2018-12-04T11:24:03.865Z,1007.37
2018-12-04T11:25:03.852Z,1007.40
2018-12-04T11:26:04.145Z,1007.42
2018-12-04T11:27:04.024Z,1007.35
2018-12-04T11:28:03.841Z,1007.38
2018-12-04T11:29:03.865Z,1007.39
2018-12-04T11:30:03.922Z,1007.46
2018-12-04T11:31:03.831Z,1007.37
2018-12-04T11:32:03.858Z,1007.51
2018-12-04T11:33:04.398Z,1007.50
2018-12-04T11:34:03.743Z,1007.54
2018-12-04T11:35:03.738Z,1007.52
2018-12-04T11:36:03.742Z,1007.61
2018-12-04T11:37:03.713Z,1007.58
2018-12-04T11:38:03.709Z,1007.63
2018-12-04T11:39:03.726Z,1007.67
2018-12-04T11:40:03.683Z,1007.73
2018-12-04T11:41:03.677Z,1007.71
2018-12-04T11:42:03.655Z,1007.69
2018-12-04T11:43:03.645Z,1007.69
2018-12-04T11:44:03.641Z,1007.72
2018-12-04T11:45:03.643Z,1007.76
2018-12-04T11:46:03.619Z,1007.85
2018-12-04T11:47:03.600Z,1007.76
2018-12-04T11:48:03.588Z,1007.75
2018-12-04T11:49:03.582Z,1007.87
2018-12-04T11:50:03.628Z,1007.81
2018-12-04T11:51:03.551Z,1007.96
2018-12-04T11:52:03.545Z,1007.93
2018-12-04T11:53:03.536Z,1007.95
2018-12-04T11:54:03.522Z,1007.96
2018-12-04T11:55:03.515Z,1008.00
2018-12-04T11:56:03.535Z,1008.06
2018-12-04T11:57:03.498Z,1008.06
2018-12-04T11:58:03.490Z,1008.06
2018-12-04T11:59:03.469Z,1007.91
2018-12-04T12:00:03.457Z,1008.04
2018-12-04T12:01:03.443Z,1008.11
2018-12-04T12:02:03.451Z,1008.09
2018-12-04T12:03:03.429Z,1008.14
2018-12-04T12:04:04.525Z,1008.10
2018-12-04T12:05:03.426Z,1008.13
2018-12-04T12:06:03.392Z,1008.23
2018-12-04T12:07:03.381Z,1008.18
2018-12-04T12:08:03.373Z,1008.22
2018-12-04T12:09:03.371Z,1008.22
2018-12-04T12:10:03.381Z,1008.19
2018-12-04T12:11:03.337Z,1008.24
2018-12-04T12:12:03.322Z,1008.26
2018-12-04T12:13:03.331Z,1008.22
2018-12-04T12:14:03.301Z,1008.23
2018-12-04T12:15:03.318Z,1008.22
2018-12-04T12:16:03.285Z,1008.24